Time;durP1;ratioP1;P1;durP2;ratioP2;P2;SDS_P1;SDS_P2;PMS_P1;PMS_P2;Temp;Humidity;BMP_temperature;BMP_pressure;BME280_temperature;BME280_humidity;BME280_pressure;Samples;Min_cycle;Max_cycle;Signal;HPM_P1;HPM_P2
2024/04/17 00:00:32;;;;;;;1.53;1.20;;;7.50;98.20;;;;;;5325723;26;21045;-80
2024/04/17 00:02:58;;;;;;;1.53;1.20;;;7.50;98.20;;;;;;5281652;26;20507;-80
2024/04/17 00:05:29;;;;;;;1.53;1.20;;;7.40;98.20;;;;;;5328127;26;21397;-80
2024/04/17 00:07:55;;;;;;;1.53;1.20;;;7.40;98.20;;;;;;5328733;26;20263;-80
2024/04/17 00:10:23;;;;;;;1.53;1.30;;;7.30;98.20;;;;;;5338497;26;20581;-80
2024/04/17 00:12:49;;;;;;;1.50;1.30;;;7.20;98.20;;;;;;5326196;26;20354;-80
2024/04/17 00:15:18;;;;;;;1.53;1.23;;;7.20;98.20;;;;;;5341316;26;20478;-80
2024/04/17 00:17:44;;;;;;;1.50;1.30;;;7.20;98.20;;;;;;5320077;26;20667;-80
2024/04/17 00:20:12;;;;;;;1.60;1.30;;;7.10;98.20;;;;;;5312887;26;21456;-80
2024/04/17 00:22:41;;;;;;;1.57;1.27;;;7.10;98.20;;;;;;5342101;26;20322;-80
2024/04/17 00:25:09;;;;;;;1.57;1.30;;;7.10;98.20;;;;;;5329315;26;20474;-80
2024/04/17 00:27:35;;;;;;;1.57;1.30;;;7.00;98.20;;;;;;5322855;26;20513;-80
2024/04/17 00:30:03;;;;;;;1.50;1.20;;;7.00;98.20;;;;;;5335719;26;20596;-80
2024/04/17 00:32:29;;;;;;;1.50;1.30;;;7.00;98.20;;;;;;5328361;26;20370;-80
2024/04/17 00:34:57;;;;;;;1.50;1.20;;;6.90;98.20;;;;;;5319497;26;20884;-80
2024/04/17 00:37:23;;;;;;;1.53;1.30;;;6.90;98.20;;;;;;5346910;26;20261;-80
2024/04/17 00:39:54;;;;;;;1.50;1.20;;;6.90;98.20;;;;;;5325202;26;20603;-80
2024/04/17 00:42:20;;;;;;;1.50;1.30;;;6.80;98.20;;;;;;5302653;26;20395;-79
2024/04/17 00:44:49;;;;;;;1.53;1.30;;;6.80;98.20;;;;;;5327773;26;20499;-80
2024/04/17 00:47:15;;;;;;;1.63;1.53;;;6.80;98.20;;;;;;5316818;26;20860;-80
2024/04/17 00:52:25;;;;;;;1.57;1.30;;;6.70;98.20;;;;;;5309830;26;20964;-80
2024/04/17 00:54:54;;;;;;;1.50;1.20;;;6.70;98.20;;;;;;5326777;26;20723;-80
2024/04/17 00:57:24;;;;;;;1.50;1.20;;;6.70;98.20;;;;;;5300636;26;20926;-80
2024/04/17 00:59:50;;;;;;;1.50;1.20;;;6.60;98.20;;;;;;5335154;26;20518;-80
2024/04/17 01:02:18;;;;;;;1.50;1.20;;;6.60;98.20;;;;;;5306031;26;20546;-80
2024/04/17 01:04:44;;;;;;;1.50;1.20;;;6.60;98.20;;;;;;5333624;26;20290;-80
2024/04/17 01:07:13;;;;;;;1.53;1.30;;;6.50;98.20;;;;;;5306007;26;20513;-80
2024/04/17 01:09:38;;;;;;;1.60;1.37;;;6.50;98.20;;;;;;5326129;26;20313;-80
2024/04/17 01:12:10;;;;;;;1.50;1.20;;;6.50;98.20;;;;;;5315772;26;20499;-80
2024/04/17 01:14:36;;;;;;;1.57;1.30;;;6.50;98.20;;;;;;5338723;26;20243;-81
2024/04/17 01:17:04;;;;;;;1.50;1.30;;;6.40;98.20;;;;;;5329777;26;20595;-81
2024/04/17 01:19:30;;;;;;;1.50;1.20;;;6.40;98.20;;;;;;5317575;26;20349;-80
2024/04/17 01:21:59;;;;;;;1.53;1.20;;;6.40;98.20;;;;;;5340509;26;20556;-80
2024/04/17 01:24:27;;;;;;;1.50;1.30;;;6.30;98.20;;;;;;5333288;26;20489;-80
2024/04/17 01:26:55;;;;;;;1.50;1.30;;;6.30;98.20;;;;;;5334464;26;20506;-80
2024/04/17 01:29:21;;;;;;;1.57;1.30;;;6.30;98.20;;;;;;5339104;26;20610;-80
2024/04/17 01:31:50;;;;;;;1.50;1.20;;;6.30;98.20;;;;;;5324159;26;20513;-79
2024/04/17 01:34:15;;;;;;;1.57;1.30;;;6.20;98.20;;;;;;5327832;26;20346;-80
2024/04/17 01:36:44;;;;;;;1.50;1.20;;;6.20;98.20;;;;;;5321314;26;20509;-80
2024/04/17 01:39:10;;;;;;;1.57;1.30;;;6.20;98.20;;;;;;5343296;26;20391;-79
2024/04/17 01:41:41;;;;;;;1.60;1.40;;;6.20;98.20;;;;;;5322940;26;20499;-80
2024/04/17 01:44:06;;;;;;;1.57;1.30;;;6.10;98.20;;;;;;5322805;26;20424;-80
2024/04/17 01:46:35;;;;;;;1.50;1.30;;;6.10;98.20;;;;;;5320900;26;21084;-79
2024/04/17 01:49:01;;;;;;;1.50;1.30;;;6.10;98.20;;;;;;5341373;26;20344;-80
2024/04/17 01:51:29;;;;;;;1.57;1.30;;;6.00;98.20;;;;;;5310997;26;20525;-80
2024/04/17 01:53:55;;;;;;;1.50;1.30;;;6.00;98.20;;;;;;5309636;26;20303;-80
2024/04/17 01:56:23;;;;;;;1.53;1.30;;;6.00;98.20;;;;;;5331414;26;20584;-80
2024/04/17 01:58:52;;;;;;;1.50;1.37;;;6.00;98.20;;;;;;5341081;26;20366;-80
2024/04/17 02:01:20;;;;;;;1.60;1.40;;;6.00;98.20;;;;;;5315421;26;20494;-80
2024/04/17 02:03:47;;;;;;;1.57;1.30;;;5.90;98.20;;;;;;5332863;26;20537;-80
2024/04/17 02:06:16;;;;;;;1.53;1.30;;;5.90;98.20;;;;;;5306265;26;20895;-80
2024/04/17 02:08:42;;;;;;;1.50;1.30;;;5.90;98.20;;;;;;5309627;26;20475;-79
2024/04/17 02:11:10;;;;;;;1.50;1.30;;;5.90;98.20;;;;;;5315562;26;20486;-80
2024/04/17 02:13:36;;;;;;;1.53;1.30;;;5.80;98.20;;;;;;5318844;26;20569;-79
2024/04/17 02:16:08;;;;;;;1.60;1.40;;;5.80;98.20;;;;;;5323157;26;21057;-80
2024/04/17 02:18:34;;;;;;;1.53;1.30;;;5.80;98.20;;;;;;5339096;26;20287;-79
2024/04/17 02:21:04;;;;;;;1.57;1.30;;;5.70;98.20;;;;;;5313713;26;20574;-80
2024/04/17 02:23:29;;;;;;;1.60;1.30;;;5.70;98.20;;;;;;5342392;26;20938;-79
2024/04/17 02:25:58;;;;;;;1.53;1.30;;;5.70;98.20;;;;;;5321117;26;20537;-79
2024/04/17 02:28:24;;;;;;;1.53;1.37;;;5.70;98.20;;;;;;5317822;26;20236;-80
2024/04/17 02:30:52;;;;;;;1.57;1.40;;;5.70;98.20;;;;;;5322123;26;20595;-77
2024/04/17 02:33:21;;;;;;;1.50;1.27;;;5.60;98.20;;;;;;5312306;26;20366;-77
2024/04/17 02:35:49;;;;;;;1.50;1.30;;;5.60;98.20;;;;;;5319603;26;20479;-77
2024/04/17 02:38:16;;;;;;;1.57;1.30;;;5.60;98.20;;;;;;5334935;26;20490;-77
2024/04/17 02:40:44;;;;;;;1.50;1.30;;;5.60;98.20;;;;;;5326283;26;20537;-77
2024/04/17 02:43:10;;;;;;;1.57;1.37;;;5.60;98.20;;;;;;5284627;26;20633;-77
2024/04/17 02:45:39;;;;;;;1.53;1.30;;;5.60;98.20;;;;;;5327214;26;20493;-77
2024/04/17 02:48:05;;;;;;;1.57;1.40;;;5.50;98.20;;;;;;5329131;26;20368;-80
2024/04/17 02:50:40;;;;;;;1.50;1.30;;;5.50;98.20;;;;;;5330803;26;20485;-79
2024/04/17 02:53:06;;;;;;;1.53;1.40;;;5.50;98.20;;;;;;5273965;26;20490;-79
2024/04/17 02:55:34;;;;;;;1.53;1.30;;;5.50;98.20;;;;;;5328342;26;20604;-79
2024/04/17 02:58:00;;;;;;;1.60;1.30;;;5.40;98.20;;;;;;5323360;26;20300;-79
2024/04/17 03:00:29;;;;;;;1.50;1.30;;;5.40;98.20;;;;;;5341904;26;20573;-79
2024/04/17 03:02:58;;;;;;;1.53;1.30;;;5.40;98.20;;;;;;5321313;26;20621;-80
2024/04/17 03:05:25;;;;;;;1.50;1.30;;;5.40;98.20;;;;;;5324626;26;21101;-79
2024/04/17 03:07:56;;;;;;;1.50;1.30;;;5.40;98.20;;;;;;5336902;26;21125;-79
2024/04/17 03:10:21;;;;;;;1.60;1.30;;;5.40;98.20;;;;;;5327715;26;20486;-79
2024/04/17 03:12:50;;;;;;;1.50;1.30;;;5.40;98.20;;;;;;5327945;26;20604;-79
2024/04/17 03:15:16;;;;;;;1.60;1.40;;;5.30;98.20;;;;;;5321448;26;20582;-79
2024/04/17 03:17:44;;;;;;;1.50;1.30;;;5.30;98.20;;;;;;5317609;26;20609;-80
2024/04/17 03:20:10;;;;;;;1.60;1.30;;;5.30;98.20;;;;;;5329041;26;20368;-79
2024/04/17 03:22:38;;;;;;;1.53;1.30;;;5.30;98.20;;;;;;5326118;26;20516;-80
2024/04/17 03:25:07;;;;;;;1.50;1.20;;;5.30;98.20;;;;;;5326676;26;20286;-80
2024/04/17 03:27:35;;;;;;;2.90;2.70;;;5.30;98.20;;;;;;5322328;26;20581;-81
2024/04/17 03:30:01;;;;;;;1.57;1.30;;;5.20;98.20;;;;;;5333332;26;21071;-81
2024/04/17 03:32:30;;;;;;;1.57;1.30;;;5.20;98.20;;;;;;5292414;26;20628;-80
2024/04/17 03:34:56;;;;;;;1.50;1.30;;;5.20;98.20;;;;;;5310812;26;20540;-81
2024/04/17 03:37:24;;;;;;;1.53;1.30;;;5.20;98.20;;;;;;5339009;26;20503;-80
2024/04/17 03:39:52;;;;;;;1.53;1.40;;;5.20;98.20;;;;;;5333283;26;20255;-81
2024/04/17 03:42:23;;;;;;;1.57;1.30;;;5.20;98.20;;;;;;5341426;26;20583;-81
2024/04/17 03:44:52;;;;;;;1.57;1.40;;;5.20;98.20;;;;;;5329441;26;20698;-80
2024/04/17 03:47:20;;;;;;;1.53;1.30;;;5.10;98.20;;;;;;5314889;26;20565;-80
2024/04/17 03:49:49;;;;;;;1.60;1.30;;;5.10;98.20;;;;;;5317478;26;20593;-80
2024/04/17 03:52:14;;;;;;;1.60;1.40;;;5.10;98.20;;;;;;5328233;26;20588;-80
2024/04/17 03:54:43;;;;;;;1.53;1.30;;;5.10;98.20;;;;;;5336261;26;20699;-80
2024/04/17 03:57:09;;;;;;;1.60;1.50;;;5.10;98.20;;;;;;5321959;26;20501;-80
2024/04/17 03:59:40;;;;;;;1.57;1.30;;;5.10;98.20;;;;;;5346949;26;20811;-80
2024/04/17 04:02:06;;;;;;;1.60;1.43;;;5.10;98.20;;;;;;5339443;26;20271;-81
2024/04/17 04:04:34;;;;;;;1.57;1.30;;;5.10;98.20;;;;;;5323445;26;20538;-80
2024/04/17 04:07:00;;;;;;;1.60;1.30;;;5.10;98.20;;;;;;5310038;26;20633;-80
2024/04/17 04:09:29;;;;;;;1.50;1.30;;;5.00;98.20;;;;;;5327382;26;20920;-79
2024/04/17 04:11:56;;;;;;;1.60;1.40;;;5.00;98.20;;;;;;5332652;26;20306;-79
2024/04/17 04:14:24;;;;;;;1.50;1.37;;;5.00;98.20;;;;;;5324483;26;20865;-79
2024/04/17 04:16:53;;;;;;;1.57;1.30;;;5.00;98.20;;;;;;5315915;26;20577;-79
2024/04/17 04:19:21;;;;;;;1.60;1.30;;;5.00;98.20;;;;;;5344806;26;20494;-79
2024/04/17 04:21:47;;;;;;;1.57;1.40;;;5.00;98.20;;;;;;5311480;26;20961;-79
2024/04/17 04:24:15;;;;;;;1.60;1.43;;;5.00;98.20;;;;;;5336146;26;20543;-79
2024/04/17 04:26:41;;;;;;;1.60;1.40;;;4.90;98.20;;;;;;5330381;26;20963;-79
2024/04/17 04:29:10;;;;;;;1.60;1.40;;;4.90;98.20;;;;;;5329765;26;20498;-80
2024/04/17 04:31:36;;;;;;;1.53;1.40;;;4.90;98.20;;;;;;5332694;26;20628;-80
2024/04/17 04:34:07;;;;;;;1.60;1.40;;;4.90;98.20;;;;;;5316298;21;20502;-79
2024/04/17 04:36:33;;;;;;;1.57;1.40;;;4.90;98.20;;;;;;5305215;26;20550;-79
2024/04/17 04:39:01;;;;;;;1.53;1.40;;;4.90;98.20;;;;;;5318874;26;20467;-79
2024/04/17 04:41:27;;;;;;;1.57;1.40;;;4.80;98.20;;;;;;5299192;26;20711;-79
2024/04/17 04:43:55;;;;;;;1.60;1.40;;;4.80;98.20;;;;;;5318208;26;20491;-77
2024/04/17 04:46:21;;;;;;;1.60;1.50;;;4.80;98.20;;;;;;5300490;26;20272;-79
2024/04/17 04:48:50;;;;;;;1.50;1.33;;;4.80;98.20;;;;;;5301109;26;20483;-79
2024/04/17 04:51:18;;;;;;;1.57;1.30;;;4.80;98.20;;;;;;5286184;26;20997;-79
2024/04/17 04:53:47;;;;;;;1.53;1.40;;;4.80;98.20;;;;;;5286256;26;20491;-78
2024/04/17 04:56:14;;;;;;;1.53;1.30;;;4.80;98.20;;;;;;5300607;26;20505;-80
2024/04/17 04:58:43;;;;;;;1.60;1.40;;;4.80;98.20;;;;;;5312384;26;20483;-79
2024/04/17 05:01:08;;;;;;;1.60;1.40;;;4.80;98.20;;;;;;5284684;26;20612;-78
2024/04/17 05:03:37;;;;;;;1.60;1.40;;;4.80;98.20;;;;;;5273972;26;20495;-78
2024/04/17 05:06:03;;;;;;;1.60;1.40;;;4.80;98.20;;;;;;5282361;26;20257;-79
2024/04/17 05:08:34;;;;;;;1.50;1.30;;;4.80;98.20;;;;;;5280287;26;20579;-78
2024/04/17 05:11:00;;;;;;;1.53;1.30;;;4.80;98.20;;;;;;5289225;26;20594;-78
2024/04/17 05:13:28;;;;;;;1.60;1.40;;;4.80;98.20;;;;;;5278982;26;20488;-80
2024/04/17 05:15:54;;;;;;;1.53;1.40;;;4.80;98.20;;;;;;5295746;26;20778;-79
2024/04/17 05:18:22;;;;;;;1.60;1.30;;;4.90;98.20;;;;;;5317625;26;20487;-79
2024/04/17 05:20:48;;;;;;;1.50;1.30;;;4.90;98.20;;;;;;5294698;26;21027;-80
2024/04/17 05:23:17;;;;;;;1.57;1.30;;;4.90;98.20;;;;;;5320677;26;20597;-79
2024/04/17 05:25:48;;;;;;;1.53;1.40;;;5.00;98.20;;;;;;5305088;26;20236;-79
2024/04/17 05:28:16;;;;;;;1.57;1.30;;;5.00;98.20;;;;;;5284276;26;20908;-79
2024/04/17 05:30:42;;;;;;;1.60;1.43;;;5.00;98.20;;;;;;5305303;26;20499;-79
2024/04/17 05:33:10;;;;;;;1.50;1.30;;;5.00;98.20;;;;;;5308526;26;20506;-80
2024/04/17 05:35:53;;;;;;;1.60;1.30;;;5.00;98.20;;;;;;5305677;26;20367;-81
2024/04/17 05:38:22;;;;;;;1.50;1.33;;;5.10;98.20;;;;;;5253050;26;20523;-81
2024/04/17 05:40:50;;;;;;;1.50;1.30;;;5.10;98.20;;;;;;5296146;26;20626;-81
2024/04/17 05:43:20;;;;;;;1.60;1.33;;;5.20;98.20;;;;;;5318861;26;21013;-81
2024/04/17 05:45:46;;;;;;;1.57;1.30;;;5.30;98.20;;;;;;5294299;26;20818;-81
2024/04/17 05:48:16;;;;;;;1.57;1.37;;;5.40;98.20;;;;;;5272316;26;20491;-81
2024/04/17 05:50:42;;;;;;;1.60;1.30;;;5.40;98.20;;;;;;5298857;26;20539;-80
2024/04/17 05:53:11;;;;;;;1.50;1.20;;;5.50;98.20;;;;;;5249770;26;21091;-80
2024/04/17 05:55:42;;;;;;;1.50;1.40;;;5.60;98.20;;;;;;5297609;26;20849;-80
2024/04/17 05:58:13;;;;;;;1.57;1.40;;;5.60;98.20;;;;;;5283814;26;21007;-80
2024/04/17 06:00:41;;;;;;;1.53;1.30;;;5.70;98.20;;;;;;5297241;26;21106;-80
2024/04/17 06:03:10;;;;;;;1.60;1.40;;;5.70;98.20;;;;;;5298571;26;21053;-79
2024/04/17 06:05:36;;;;;;;1.50;1.30;;;5.80;98.20;;;;;;5298533;26;20475;-80
2024/04/17 06:08:04;;;;;;;1.60;1.50;;;5.80;98.20;;;;;;5295482;26;20534;-80
2024/04/17 06:10:33;;;;;;;1.50;1.30;;;5.80;98.20;;;;;;5296256;26;20809;-79
2024/04/17 06:13:01;;;;;;;1.60;1.33;;;5.90;98.20;;;;;;5286759;26;20574;-80
2024/04/17 06:15:31;;;;;;;1.57;1.30;;;5.90;98.20;;;;;;5295472;26;20519;-80
2024/04/17 06:17:59;;;;;;;1.50;1.30;;;6.00;98.20;;;;;;5290678;26;20498;-80
2024/04/17 06:20:26;;;;;;;1.50;1.30;;;6.00;98.20;;;;;;5290959;26;20483;-80
2024/04/17 06:22:55;;;;;;;1.50;1.30;;;6.10;98.20;;;;;;5287416;26;20561;-79
2024/04/17 06:25:21;;;;;;;1.57;1.30;;;6.10;98.20;;;;;;5298652;26;20906;-79
2024/04/17 06:27:50;;;;;;;1.57;1.30;;;6.20;98.20;;;;;;5302056;26;20576;-79
2024/04/17 06:30:16;;;;;;;1.53;1.30;;;6.20;98.20;;;;;;5295224;26;20467;-79
2024/04/17 06:32:48;;;;;;;1.60;1.40;;;6.30;98.20;;;;;;5260827;27;20555;-78
2024/04/17 06:35:14;;;;;;;1.50;1.20;;;6.40;98.20;;;;;;5297675;26;20582;-78
2024/04/17 06:37:43;;;;;;;1.50;1.30;;;6.50;98.20;;;;;;5299072;26;20812;-78
2024/04/17 06:40:09;;;;;;;1.60;1.30;;;6.60;98.20;;;;;;5293973;26;20831;-78
2024/04/17 06:42:37;;;;;;;1.53;1.30;;;6.60;98.20;;;;;;5294240;26;21124;-78
2024/04/17 06:45:06;;;;;;;1.53;1.30;;;6.80;98.20;;;;;;5296236;26;20979;-78
2024/04/17 06:47:34;;;;;;;1.53;1.30;;;6.90;98.20;;;;;;5261644;26;21281;-78
2024/04/17 06:50:04;;;;;;;1.60;1.30;;;6.90;98.20;;;;;;5296119;26;20525;-77
2024/04/17 06:52:32;;;;;;;1.53;1.20;;;7.00;98.20;;;;;;5283971;26;20507;-77
2024/04/17 06:54:58;;;;;;;1.50;1.20;;;7.00;98.20;;;;;;5297134;27;20805;-78
2024/04/17 06:57:27;;;;;;;1.57;1.20;;;7.10;98.20;;;;;;5257420;27;20542;-79
2024/04/17 06:59:53;;;;;;;1.60;1.30;;;7.10;98.20;;;;;;5295036;26;20486;-79
2024/04/17 07:02:22;;;;;;;1.60;1.30;;;7.10;98.20;;;;;;5280374;26;20604;-79
2024/04/17 07:04:49;;;;;;;1.57;1.20;;;7.10;98.20;;;;;;5305410;26;20523;-79
2024/04/17 07:07:22;;;;;;;1.50;1.30;;;7.10;98.20;;;;;;5267769;27;20549;-80
2024/04/17 07:09:48;;;;;;;1.60;1.40;;;7.20;98.20;;;;;;5294473;26;20483;-78
2024/04/17 07:12:19;;;;;;;1.60;1.30;;;7.20;98.20;;;;;;5291452;26;20842;-78
2024/04/17 07:14:46;;;;;;;1.50;1.20;;;7.20;98.20;;;;;;5296484;26;20584;-80
2024/04/17 07:17:14;;;;;;;1.60;1.40;;;7.20;98.20;;;;;;5289964;26;20484;-80
2024/04/17 07:19:40;;;;;;;1.57;1.30;;;7.20;98.20;;;;;;5300104;26;20845;-79
2024/04/17 07:22:09;;;;;;;1.50;1.27;;;7.20;98.20;;;;;;5286728;26;20499;-78
2024/04/17 07:24:38;;;;;;;1.60;1.30;;;7.30;98.20;;;;;;5301809;26;20485;-79
2024/04/17 07:27:07;;;;;;;1.50;1.20;;;7.40;98.20;;;;;;5291321;26;20549;-79
2024/04/17 07:29:34;;;;;;;1.50;1.20;;;7.40;98.20;;;;;;5302334;26;20524;-79
2024/04/17 07:32:02;;;;;;;1.53;1.20;;;7.40;98.20;;;;;;5294956;26;20490;-78
2024/04/17 07:34:29;;;;;;;1.57;1.20;;;7.50;98.20;;;;;;5296456;26;20483;-78
2024/04/17 07:36:57;;;;;;;1.53;1.27;;;7.50;98.20;;;;;;5281845;26;20570;-79
2024/04/17 07:39:23;;;;;;;1.57;1.30;;;7.40;98.20;;;;;;5300664;26;20499;-79
2024/04/17 07:41:55;;;;;;;1.53;1.20;;;7.30;98.20;;;;;;5287702;26;20507;-79
2024/04/17 07:44:21;;;;;;;1.50;1.20;;;7.30;98.20;;;;;;5294645;26;21165;-79
2024/04/17 07:46:50;;;;;;;1.50;1.20;;;7.40;98.20;;;;;;5286335;26;20494;-80
2024/04/17 07:49:16;;;;;;;1.50;1.30;;;7.50;98.20;;;;;;5299226;26;20529;-79
2024/04/17 07:51:45;;;;;;;1.50;1.20;;;7.50;98.20;;;;;;5294436;26;20491;-79
2024/04/17 07:54:11;;;;;;;1.50;1.30;;;7.70;98.20;;;;;;5298185;26;20644;-78
2024/04/17 07:56:40;;;;;;;1.50;1.20;;;7.90;98.20;;;;;;5287084;26;20503;-79
2024/04/17 07:59:09;;;;;;;1.57;1.20;;;8.00;98.20;;;;;;5296748;26;20279;-78
2024/04/17 08:01:40;;;;;;;1.53;1.20;;;8.20;98.20;;;;;;5285794;26;20491;-79
2024/04/17 08:04:06;;;;;;;1.50;1.10;;;8.30;98.20;;;;;;5290090;26;20606;-79
2024/04/17 08:06:35;;;;;;;1.50;1.10;;;8.40;98.20;;;;;;5289960;26;20491;-78
2024/04/17 08:09:01;;;;;;;1.50;1.00;;;8.30;98.20;;;;;;5305881;26;20487;-78
2024/04/17 08:11:34;;;;;;;1.53;1.20;;;8.30;98.20;;;;;;5289606;26;20552;-79
2024/04/17 08:14:01;;;;;;;1.57;1.20;;;8.30;98.20;;;;;;5304825;26;20998;-79
2024/04/17 08:16:32;;;;;;;1.60;1.20;;;8.30;98.20;;;;;;5289648;26;21165;-80
2024/04/17 08:18:58;;;;;;;1.50;1.20;;;8.30;98.20;;;;;;5307119;26;21062;-81
2024/04/17 08:21:28;;;;;;;1.50;1.20;;;8.30;98.20;;;;;;5284211;26;20491;-78
2024/04/17 08:23:55;;;;;;;1.53;1.30;;;8.30;98.20;;;;;;5292672;26;21038;-79
2024/04/17 08:26:24;;;;;;;1.53;1.10;;;8.20;98.20;;;;;;5283939;26;20730;-79
2024/04/17 08:28:50;;;;;;;1.50;1.20;;;8.30;98.20;;;;;;5301704;26;20597;-79
2024/04/17 08:31:19;;;;;;;1.50;1.20;;;8.30;98.20;;;;;;5290787;26;20495;-79
2024/04/17 08:33:51;;;;;;;1.53;1.10;;;8.40;98.20;;;;;;5296355;26;20733;-79
2024/04/17 08:36:19;;;;;;;1.53;1.20;;;8.40;98.20;;;;;;5283591;26;20495;-79
2024/04/17 08:38:46;;;;;;;1.50;1.20;;;8.40;98.20;;;;;;5291625;26;20530;-79
2024/04/17 08:41:16;;;;;;;1.50;1.10;;;8.40;98.20;;;;;;5282537;26;20543;-80
2024/04/17 08:43:45;;;;;;;1.53;1.30;;;8.40;98.20;;;;;;5296639;26;20506;-79
2024/04/17 08:46:15;;;;;;;1.50;1.20;;;8.40;98.20;;;;;;5283037;26;20957;-79
2024/04/17 08:48:42;;;;;;;1.50;1.20;;;8.40;98.20;;;;;;5294714;26;20495;-79
2024/04/17 08:51:16;;;;;;;1.57;1.20;;;8.40;98.20;;;;;;5284321;26;20507;-78
2024/04/17 08:53:43;;;;;;;1.50;1.10;;;8.40;98.20;;;;;;5305076;26;20467;-78
2024/04/17 08:56:13;;;;;;;1.50;1.20;;;8.40;98.20;;;;;;5277789;26;20498;-78
2024/04/17 08:58:43;;;;;;;1.53;1.20;;;8.30;98.20;;;;;;5295532;26;20471;-79
2024/04/17 09:01:14;;;;;;;1.50;1.10;;;8.20;98.20;;;;;;5288267;26;20499;-78
2024/04/17 09:03:42;;;;;;;1.53;1.20;;;8.20;98.20;;;;;;5299739;26;20923;-79
2024/04/17 09:06:14;;;;;;;1.53;1.20;;;8.20;98.20;;;;;;5277805;26;20510;-78
2024/04/17 09:08:41;;;;;;;1.50;1.20;;;8.20;98.20;;;;;;5292566;26;20520;-77
2024/04/17 09:11:11;;;;;;;1.50;1.20;;;8.30;98.20;;;;;;5285745;26;20515;-78
2024/04/17 09:13:37;;;;;;;1.50;1.20;;;8.40;98.20;;;;;;5303167;26;21024;-78
2024/04/17 09:16:06;;;;;;;1.50;1.13;;;8.60;98.20;;;;;;5282993;26;20556;-77
2024/04/17 09:18:33;;;;;;;1.50;1.10;;;8.70;98.20;;;;;;5302542;26;20236;-78
2024/04/17 09:21:03;;;;;;;1.50;1.20;;;8.90;98.20;;;;;;5282368;26;20531;-78
2024/04/17 09:23:31;;;;;;;1.53;1.10;;;9.10;98.20;;;;;;5296343;26;21419;-78
2024/04/17 09:26:00;;;;;;;1.50;1.10;;;9.20;98.20;;;;;;5288345;26;20472;-78
2024/04/17 09:28:26;;;;;;;1.50;1.10;;;9.40;98.20;;;;;;5307949;26;21104;-76
2024/04/17 09:30:55;;;;;;;1.50;1.10;;;9.60;98.20;;;;;;5288205;26;20479;-77
2024/04/17 09:33:21;;;;;;;1.60;1.10;;;9.70;98.20;;;;;;5300418;26;20494;-77
2024/04/17 09:35:49;;;;;;;1.50;1.10;;;9.80;98.20;;;;;;5289489;26;20575;-77
2024/04/17 09:38:16;;;;;;;1.53;1.10;;;9.90;98.20;;;;;;5309683;26;20532;-77
2024/04/17 09:40:48;;;;;;;1.53;1.10;;;9.90;98.20;;;;;;5298689;26;20971;-77
2024/04/17 09:43:23;;;;;;;1.50;1.00;;;9.90;98.20;;;;;;5264395;27;20610;-76
2024/04/17 09:45:59;;;;;;;1.53;1.10;;;9.90;98.20;;;;;;5283859;26;20471;-78
2024/04/17 09:48:26;;;;;;;1.53;1.10;;;9.90;98.20;;;;;;5267027;26;20481;-78
2024/04/17 09:51:02;;;;;;;1.53;1.10;;;9.80;98.20;;;;;;5288171;26;21069;-79
2024/04/17 09:53:31;;;;;;;2.17;1.97;;;9.80;98.20;;;;;;5306262;26;20490;-79
2024/04/17 09:56:19;;;;;;;1.50;1.10;;;9.60;98.20;;;;;;5286173;26;20468;-78
2024/04/17 09:59:03;;;;;;;1.50;1.10;;;9.40;98.20;;;;;;5301130;26;20524;-79
2024/04/17 10:01:56;;;;;;;1.50;1.10;;;9.40;98.20;;;;;;5288760;26;20634;-79
2024/04/17 10:04:24;;;;;;;1.50;1.10;;;9.40;98.20;;;;;;5296817;26;20493;-79
2024/04/17 10:06:53;;;;;;;1.50;1.20;;;9.30;98.20;;;;;;5289567;26;20538;-78
2024/04/17 10:09:21;;;;;;;1.50;1.00;;;9.30;98.20;;;;;;5301236;26;20547;-79
2024/04/17 10:11:56;;;;;;;1.50;1.03;;;9.20;98.20;;;;;;5290077;26;20497;-79
2024/04/17 10:14:29;;;;;;;1.50;1.10;;;9.40;98.20;;;;;;5306018;26;20470;-81
2024/04/17 10:16:55;;;;;;;1.50;1.10;;;9.60;98.20;;;;;;5303969;26;20601;-81
2024/04/17 10:19:25;;;;;;;1.50;1.10;;;9.90;98.20;;;;;;5305319;26;20484;-79
2024/04/17 10:21:54;;;;;;;1.50;1.07;;;10.00;98.20;;;;;;5300435;26;20628;-77
2024/04/17 10:24:22;;;;;;;1.50;1.10;;;10.20;98.20;;;;;;5312000;26;20543;-78
2024/04/17 10:26:54;;;;;;;1.50;1.10;;;10.40;98.20;;;;;;5303421;26;20490;-80
2024/04/17 10:29:25;;;;;;;1.60;1.43;;;10.70;98.20;;;;;;5308156;26;20467;-78
2024/04/17 10:31:59;;;;;;;1.50;1.10;;;11.00;98.20;;;;;;5299638;26;20537;-79
2024/04/17 10:34:29;;;;;;;1.53;1.07;;;11.20;98.20;;;;;;5308227;26;20597;-79
2024/04/17 10:36:59;;;;;;;1.50;1.10;;;11.30;98.20;;;;;;5300846;26;20498;-79
2024/04/17 10:39:28;;;;;;;1.60;1.20;;;11.30;98.20;;;;;;5302916;26;20534;-79
2024/04/17 10:41:57;;;;;;;1.50;1.00;;;11.30;98.20;;;;;;5291675;26;20503;-77
2024/04/17 10:44:26;;;;;;;1.50;1.10;;;11.30;98.20;;;;;;5299609;26;20484;-77
2024/04/17 10:47:01;;;;;;;1.50;1.10;;;11.40;98.20;;;;;;5284900;26;20491;-78
2024/04/17 10:49:30;;;;;;;1.50;1.10;;;11.60;98.20;;;;;;5297785;26;21013;-78
2024/04/17 10:51:55;;;;;;;1.50;0.90;;;12.00;98.20;;;;;;5301451;26;20493;-78
2024/04/17 10:54:24;;;;;;;1.53;1.00;;;12.40;98.20;;;;;;5298944;26;20532;-78
2024/04/17 10:56:51;;;;;;;1.50;1.00;;;12.60;98.20;;;;;;5266693;26;20504;-79
2024/04/17 10:59:29;;;;;;;1.50;1.00;;;12.90;98.20;;;;;;5285062;26;20557;-78
2024/04/17 11:01:55;;;;;;;1.50;1.00;;;13.30;98.20;;;;;;5288094;26;20618;-77
2024/04/17 11:04:25;;;;;;;1.57;1.00;;;13.60;98.20;;;;;;5299065;26;20479;-76
2024/04/17 11:06:51;;;;;;;1.60;1.30;;;13.80;98.20;;;;;;5290325;26;20515;-77
2024/04/17 11:09:20;;;;;;;1.50;0.90;;;13.80;98.20;;;;;;5306052;26;20488;-77
2024/04/17 11:11:46;;;;;;;1.70;1.00;;;14.00;98.20;;;;;;5291245;26;20538;-78
2024/04/17 11:14:16;;;;;;;1.50;0.90;;;14.10;98.20;;;;;;5299447;26;20601;-77
2024/04/17 11:16:45;;;;;;;1.50;0.90;;;14.30;98.20;;;;;;5286861;26;20604;-77
2024/04/17 11:19:14;;;;;;;1.50;1.00;;;14.20;98.20;;;;;;5306181;26;20543;-77
2024/04/17 11:21:43;;;;;;;1.50;1.00;;;14.10;98.20;;;;;;5292945;26;20498;-77
2024/04/17 11:24:19;;;;;;;1.50;1.00;;;14.00;98.20;;;;;;5302311;26;20515;-77
2024/04/17 11:26:46;;;;;;;1.50;1.00;;;13.90;98.20;;;;;;5296853;26;21007;-77
2024/04/17 11:29:19;;;;;;;1.50;1.00;;;13.90;98.20;;;;;;5303978;26;20977;-76
2024/04/17 11:31:47;;;;;;;1.50;0.90;;;13.90;98.20;;;;;;5288805;26;20629;-76
2024/04/17 11:34:21;;;;;;;1.50;0.90;;;14.00;98.20;;;;;;5296462;26;20545;-75
2024/04/17 11:36:48;;;;;;;1.50;1.00;;;14.20;98.20;;;;;;5284197;26;20600;-76
2024/04/17 11:39:17;;;;;;;1.50;1.00;;;14.40;98.20;;;;;;5293894;26;20555;-78
2024/04/17 11:41:43;;;;;;;1.50;0.90;;;14.70;98.20;;;;;;5287016;26;20543;-77
2024/04/17 11:44:12;;;;;;;1.50;0.90;;;15.10;98.20;;;;;;5297634;26;20516;-77
2024/04/17 11:46:39;;;;;;;1.50;1.00;;;15.30;96.80;;;;;;5284882;26;20540;-76
2024/04/17 11:49:11;;;;;;;1.50;1.00;;;15.50;97.50;;;;;;5292151;26;20539;-77
2024/04/17 11:51:37;;;;;;;1.50;0.90;;;15.60;94.40;;;;;;5286229;26;21333;-76
2024/04/17 11:54:06;;;;;;;1.50;0.90;;;15.70;92.40;;;;;;5297964;26;20479;-76
2024/04/17 11:56:32;;;;;;;1.50;0.90;;;15.60;95.00;;;;;;5287233;26;20908;-77
2024/04/17 11:59:00;;;;;;;1.50;0.90;;;15.50;96.10;;;;;;5300024;26;20480;-77
2024/04/17 12:01:26;;;;;;;1.50;0.90;;;15.60;96.90;;;;;;5288177;26;20391;-77
2024/04/17 12:03:55;;;;;;;1.50;0.90;;;15.70;97.00;;;;;;5298027;26;20841;-76
2024/04/17 12:06:23;;;;;;;1.50;0.90;;;15.70;96.50;;;;;;5288649;26;20843;-76
2024/04/17 12:08:52;;;;;;;1.50;0.90;;;15.90;96.10;;;;;;5296782;26;20563;-76
2024/04/17 12:11:18;;;;;;;1.50;0.90;;;16.10;97.40;;;;;;5279783;26;20498;-76
2024/04/17 12:13:47;;;;;;;1.50;0.90;;;16.20;94.80;;;;;;5300431;26;20968;-76
2024/04/17 12:16:13;;;;;;;1.50;0.90;;;16.30;92.20;;;;;;5284593;26;20554;-76
2024/04/17 12:18:43;;;;;;;1.50;0.90;;;16.20;92.50;;;;;;5296442;26;20463;-76
2024/04/17 12:21:10;;;;;;;1.50;1.00;;;15.70;94.80;;;;;;5285502;26;21056;-76
2024/04/17 12:23:42;;;;;;;1.50;1.00;;;15.00;96.10;;;;;;5303271;26;20528;-76
2024/04/17 12:28:56;;;;;;;1.50;1.10;;;13.80;98.20;;;;;;5301069;26;20521;-77
2024/04/17 12:31:25;;;;;;;1.50;1.00;;;13.30;98.20;;;;;;5287431;26;20535;-76
2024/04/17 12:33:53;;;;;;;1.50;1.00;;;12.90;98.20;;;;;;5298984;26;20483;-75
2024/04/17 12:36:25;;;;;;;1.50;1.00;;;12.50;98.20;;;;;;5284160;26;20634;-77
2024/04/17 12:38:57;;;;;;;1.50;0.90;;;12.10;98.20;;;;;;5300511;26;20609;-74
2024/04/17 12:41:26;;;;;;;1.50;1.00;;;11.50;98.20;;;;;;5287404;26;21353;-75
2024/04/17 12:43:55;;;;;;;1.50;1.00;;;10.70;98.20;;;;;;5305524;26;20542;-74
2024/04/17 12:46:23;;;;;;;1.50;1.00;;;10.20;98.20;;;;;;5285344;26;20507;-75
2024/04/17 12:48:52;;;;;;;1.50;1.00;;;9.90;98.20;;;;;;5310082;26;20729;-77
2024/04/17 12:51:21;;;;;;;1.50;1.10;;;9.70;98.20;;;;;;5277135;27;20500;-77
2024/04/17 12:54:06;;;;;;;1.50;1.00;;;9.40;98.20;;;;;;5280777;26;20551;-79
2024/04/17 12:56:38;;;;;;;1.80;1.30;;;9.20;98.20;;;;;;5274721;26;20548;-79
2024/04/17 12:59:22;;;;;;;;;;;;;;;;;;;;;
2024/04/17 13:01:53;;;;;;;1.53;1.10;;;9.20;98.20;;;;;;5292320;26;20684;-77
2024/04/17 13:04:19;;;;;;;1.50;1.10;;;9.30;98.20;;;;;;5303763;26;20510;-77
2024/04/17 13:06:48;;;;;;;1.50;1.10;;;9.30;98.20;;;;;;5295175;26;20890;-77